Time;durP1;ratioP1;P1;durP2;ratioP2;P2;SDS_P1;SDS_P2;PMS_P1;PMS_P2;Temp;Humidity;BMP_temperature;BMP_pressure;BME280_temperature;BME280_humidity;BME280_pressure;Samples;Min_cycle;Max_cycle;Signal;HPM_P1;HPM_P2
2022/04/24 00:01:06;;;;;;;10.33;4.47;;;;;;;15.94;54.92;94195.63;5072957;28;20727;-75
2022/04/24 00:03:33;;;;;;;6.60;3.50;;;;;;;15.92;55.23;94192.41;5072829;28;20259;-75
2022/04/24 00:06:00;;;;;;;4.73;3.60;;;;;;;15.87;55.05;94181.84;5073169;28;20217;-76
2022/04/24 00:08:27;;;;;;;7.90;3.40;;;;;;;15.88;55.13;94188.59;5072394;28;20245;-75
2022/04/24 00:10:55;;;;;;;6.53;3.23;;;;;;;15.85;55.12;94185.59;5072947;28;20708;-76
2022/04/24 00:13:23;;;;;;;8.27;3.73;;;;;;;15.84;54.98;94192.53;5072424;28;20244;-75
2022/04/24 00:15:50;;;;;;;4.57;3.20;;;;;;;15.79;55.11;94185.34;5072948;28;20244;-75
2022/04/24 00:18:17;;;;;;;7.27;3.90;;;;;;;15.77;55.38;94181.34;5072506;28;20194;-76
2022/04/24 00:20:44;;;;;;;6.30;3.03;;;;;;;15.74;55.28;94186.88;5072876;28;20197;-75
2022/04/24 00:23:11;;;;;;;8.30;3.50;;;;;;;15.78;55.45;94201.00;5072549;28;20190;-76
2022/04/24 00:25:37;;;;;;;8.60;3.37;;;;;;;15.68;55.46;94185.03;5072482;28;20191;-76
2022/04/24 00:28:06;;;;;;;5.63;3.30;;;;;;;15.73;55.49;94196.38;5072412;28;20221;-76
2022/04/24 00:30:33;;;;;;;7.57;3.73;;;;;;;15.72;55.48;94196.56;5072568;28;20190;-75
2022/04/24 00:33:00;;;;;;;8.20;4.13;;;;;;;15.70;55.63;94195.94;5072354;28;20186;-76
2022/04/24 00:35:27;;;;;;;6.23;3.30;;;;;;;15.64;55.71;94194.91;5072164;28;20577;-75
2022/04/24 00:37:54;;;;;;;5.47;3.23;;;;;;;15.66;55.69;94199.84;5071869;28;20194;-76
2022/04/24 00:40:21;;;;;;;5.77;2.97;;;;;;;15.63;55.88;94189.88;5072014;28;20186;-76
2022/04/24 00:42:48;;;;;;;6.87;2.97;;;;;;;15.62;55.73;94188.28;5072284;28;20661;-75
2022/04/24 00:45:16;;;;;;;7.53;3.63;;;;;;;15.59;55.91;94194.59;5072198;28;20186;-76
2022/04/24 00:47:43;;;;;;;4.20;3.03;;;;;;;15.57;56.00;94192.19;5072304;28;20577;-75
2022/04/24 00:50:10;;;;;;;5.37;2.73;;;;;;;15.56;56.08;94189.81;5072032;28;20198;-75
2022/04/24 00:52:38;;;;;;;5.07;3.17;;;;;;;15.51;56.03;94185.19;5072343;28;20190;-74
2022/04/24 00:55:06;;;;;;;7.00;3.70;;;;;;;15.49;56.26;94196.66;5071814;28;20190;-75
2022/04/24 00:57:33;;;;;;;6.90;2.93;;;;;;;15.42;56.31;94183.69;5071807;28;20186;-75
2022/04/24 01:00:00;;;;;;;6.33;3.93;;;;;;;15.40;56.43;94185.63;5071835;28;20190;-75
2022/04/24 01:02:28;;;;;;;4.40;2.87;;;;;;;15.35;56.34;94182.81;5072013;28;20193;-75
2022/04/24 01:04:57;;;;;;;6.03;3.43;;;;;;;15.40;56.61;94201.09;5071930;28;20607;-75
2022/04/24 01:07:24;;;;;;;5.60;3.03;;;;;;;15.39;56.64;94203.88;5071393;28;20226;-75
2022/04/24 01:09:51;;;;;;;7.33;3.20;;;;;;;15.30;56.67;94188.50;5071794;28;20229;-74
2022/04/24 01:12:18;;;;;;;7.07;3.60;;;;;;;15.36;56.70;94201.63;5071198;28;20201;-75
2022/04/24 01:14:44;;;;;;;6.70;3.30;;;;;;;15.22;56.85;94186.00;5071683;28;20193;-75
2022/04/24 01:17:11;;;;;;;3.80;2.90;;;;;;;15.31;56.83;94205.56;5071641;28;20194;-75
2022/04/24 01:19:39;;;;;;;6.37;3.00;;;;;;;15.29;56.88;94211.88;5071568;28;20202;-74
2022/04/24 01:22:08;;;;;;;5.23;3.03;;;;;;;15.27;57.08;94211.25;5071376;28;20186;-74
2022/04/24 01:24:34;;;;;;;5.23;2.93;;;;;;;15.26;57.01;94213.03;5071318;28;20198;-74
2022/04/24 01:27:01;;;;;;;6.50;3.33;;;;;;;15.25;57.10;94218.34;5071061;28;20277;-75
2022/04/24 01:29:28;;;;;;;6.67;3.57;;;;;;;15.24;57.14;94219.31;5071368;28;20681;-74
2022/04/24 01:31:56;;;;;;;6.57;3.13;;;;;;;15.19;57.11;94217.28;5071244;28;20194;-74
2022/04/24 01:34:23;;;;;;;7.00;3.03;;;;;;;15.18;57.40;94215.69;5071019;28;20187;-74
2022/04/24 01:36:50;;;;;;;4.80;3.17;;;;;;;15.17;57.40;94221.81;5071005;28;20194;-74
2022/04/24 01:39:18;;;;;;;8.97;3.50;;;;;;;15.15;57.33;94223.75;5071228;28;20191;-75
2022/04/24 01:41:46;;;;;;;7.03;3.20;;;;;;;15.14;57.34;94227.31;5071036;28;20197;-74
2022/04/24 01:44:13;;;;;;;7.23;3.00;;;;;;;15.08;57.18;94211.78;5070853;28;20201;-76
2022/04/24 01:46:40;;;;;;;6.17;3.60;;;;;;;15.10;57.27;94222.69;5071056;28;20190;-73
2022/04/24 01:49:06;;;;;;;6.00;3.23;;;;;;;15.08;57.55;94228.03;5070242;28;20279;-75
2022/04/24 01:51:33;;;;;;;7.90;3.57;;;;;;;15.06;57.31;94228.19;5070313;28;20196;-73
2022/04/24 01:54:00;;;;;;;5.73;3.30;;;;;;;15.05;57.59;94230.94;5070596;28;20677;-74
2022/04/24 01:56:28;;;;;;;4.07;2.93;;;;;;;15.05;57.57;94230.94;5070414;28;20662;-74
2022/04/24 01:58:55;;;;;;;7.37;3.27;;;;;;;14.96;57.58;94216.56;5070543;28;20661;-75
2022/04/24 02:01:22;;;;;;;5.40;2.80;;;;;;;15.00;57.63;94234.06;5070737;28;20577;-75
2022/04/24 02:03:48;;;;;;;7.57;3.37;;;;;;;14.97;57.79;94228.44;5070997;28;20189;-75
2022/04/24 02:06:15;;;;;;;8.80;3.63;;;;;;;14.96;57.59;94227.66;5070768;28;20198;-75
2022/04/24 02:08:42;;;;;;;7.03;3.40;;;;;;;14.93;57.63;94222.06;5070274;28;20261;-75
2022/04/24 02:11:09;;;;;;;6.20;2.93;;;;;;;14.92;57.77;94228.97;5070525;28;20612;-75
2022/04/24 02:13:37;;;;;;;5.63;3.17;;;;;;;14.91;57.81;94232.53;5070390;28;20248;-76
2022/04/24 02:16:05;;;;;;;5.37;2.90;;;;;;;14.88;57.97;94232.88;5070665;28;20627;-75
2022/04/24 02:18:33;;;;;;;4.90;3.20;;;;;;;14.86;58.10;94231.47;5070306;28;20604;-74
2022/04/24 02:21:00;;;;;;;6.27;3.10;;;;;;;14.85;58.08;94229.84;5070518;28;20573;-74
2022/04/24 02:23:27;;;;;;;6.57;3.40;;;;;;;14.84;58.09;94228.25;5070221;28;20696;-76
2022/04/24 02:25:54;;;;;;;4.80;3.57;;;;;;;14.81;58.25;94237.16;5070342;28;20281;-74
2022/04/24 02:28:21;;;;;;;4.97;3.07;;;;;;;14.80;58.07;94235.53;5070398;28;20774;-76
2022/04/24 02:30:49;;;;;;;6.97;4.07;;;;;;;14.79;58.21;94239.88;5070288;28;20202;-74
2022/04/24 02:33:16;;;;;;;9.93;3.50;;;;;;;14.76;58.45;94236.84;5070217;28;20894;-75
2022/04/24 02:35:43;;;;;;;4.77;3.47;;;;;;;14.75;58.25;94241.19;5069995;28;20196;-74
2022/04/24 02:38:10;;;;;;;4.00;3.30;;;;;;;14.73;58.10;94240.59;5070195;28;20609;-74
2022/04/24 02:40:37;;;;;;;5.90;3.57;;;;;;;14.68;58.38;94227.44;5070246;28;20179;-74
2022/04/24 02:43:04;;;;;;;4.63;3.30;;;;;;;14.72;58.23;94238.16;5070277;28;20213;-74
2022/04/24 02:45:31;;;;;;;6.07;3.63;;;;;;;14.69;58.27;94236.75;5069892;28;20194;-74
2022/04/24 02:47:59;;;;;;;6.17;3.77;;;;;;;14.66;58.45;94237.09;5069989;28;20775;-74
2022/04/24 02:50:27;;;;;;;5.40;3.20;;;;;;;14.66;58.59;94237.09;5069882;28;20191;-75
2022/04/24 02:52:55;;;;;;;4.77;3.50;;;;;;;14.64;58.64;94236.47;5070163;28;20632;-74
2022/04/24 02:55:23;;;;;;;8.67;3.70;;;;;;;14.63;58.68;94246.94;5069863;28;20205;-74
2022/04/24 02:57:50;;;;;;;5.83;3.40;;;;;;;14.61;58.91;94241.16;5069931;28;20205;-74
2022/04/24 03:00:22;;;;;;;8.60;3.80;;;;;;;14.59;58.64;94248.25;5070016;28;20198;-75
2022/04/24 03:02:50;;;;;;;5.87;3.17;;;;;;;14.58;58.78;94244.06;5073647;28;20284;-74
2022/04/24 03:05:21;;;;;;;7.40;3.60;;;;;;;14.55;58.82;94246.03;5073898;28;20194;-74
2022/04/24 03:07:48;;;;;;;6.13;4.10;;;;;;;14.53;58.62;94253.13;5073495;28;20566;-74
2022/04/24 03:10:16;;;;;;;8.30;4.00;;;;;;;14.51;58.93;94257.66;5073860;28;20253;-75
2022/04/24 03:12:44;;;;;;;4.70;3.93;;;;;;;14.50;58.87;94256.03;5073910;28;20189;-74
2022/04/24 03:15:13;;;;;;;5.23;3.73;;;;;;;14.50;58.99;94257.81;5074117;28;20263;-75
2022/04/24 03:17:40;;;;;;;6.37;3.77;;;;;;;14.48;58.95;94259.72;5073526;28;20624;-74
2022/04/24 03:20:09;;;;;;;9.47;3.60;;;;;;;14.47;59.06;94255.56;5073691;28;20673;-75
2022/04/24 03:22:37;;;;;;;6.20;3.33;;;;;;;14.44;58.96;94256.69;5073305;28;20229;-75
2022/04/24 03:25:05;;;;;;;7.97;3.73;;;;;;;14.44;59.05;94258.47;5073669;28;20197;-75
2022/04/24 03:27:33;;;;;;;7.70;3.87;;;;;;;14.38;59.02;94252.25;5073310;28;20197;-75
2022/04/24 03:29:59;;;;;;;5.90;3.93;;;;;;;14.42;59.27;94265.53;5073516;28;20279;-74
2022/04/24 03:32:26;;;;;;;7.67;3.67;;;;;;;14.39;59.22;94263.34;5073176;28;20190;-75
2022/04/24 03:34:53;;;;;;;5.40;3.57;;;;;;;14.39;59.05;94271.06;5073318;28;20190;-75
2022/04/24 03:37:20;;;;;;;6.13;3.97;;;;;;;14.39;59.20;94271.84;5073071;28;20234;-75
2022/04/24 03:39:48;;;;;;;6.47;4.00;;;;;;;14.38;59.35;94272.81;5073664;28;20195;-74
2022/04/24 03:42:15;;;;;;;5.10;3.37;;;;;;;14.37;59.21;94266.06;5073463;28;20277;-76
2022/04/24 03:44:42;;;;;;;6.07;3.67;;;;;;;14.37;59.25;94263.50;5073076;28;20190;-75
2022/04/24 03:47:09;;;;;;;7.63;4.10;;;;;;;14.38;59.15;94264.28;5073369;28;20191;-76
2022/04/24 03:49:36;;;;;;;9.53;3.73;;;;;;;14.38;59.36;94264.28;5072796;28;20324;-75
2022/04/24 03:52:03;;;;;;;8.90;3.60;;;;;;;14.39;59.55;94274.41;5073142;28;20190;-75
2022/04/24 03:54:30;;;;;;;6.77;3.70;;;;;;;14.39;59.22;94269.28;5072690;28;20197;-75
2022/04/24 03:56:58;;;;;;;5.73;4.07;;;;;;;14.41;59.57;94275.03;5073265;28;20190;-74
2022/04/24 03:59:25;;;;;;;6.97;4.83;;;;;;;14.42;59.53;94276.66;5072793;28;20203;-75
2022/04/24 04:01:52;;;;;;;6.27;4.10;;;;;;;14.43;59.59;94280.81;5073016;28;20209;-75
2022/04/24 04:04:19;;;;;;;11.00;4.40;;;;;;;14.46;59.44;94272.75;5072548;28;20215;-76
2022/04/24 04:06:46;;;;;;;6.60;4.17;;;;;;;14.48;59.63;94270.03;5073307;28;20187;-74
2022/04/24 04:09:12;;;;;;;5.57;3.67;;;;;;;14.50;59.48;94276.59;5072709;28;20242;-76
2022/04/24 04:11:39;;;;;;;6.60;4.00;;;;;;;14.45;59.59;94265.22;5072979;28;20190;-74
2022/04/24 04:14:09;;;;;;;7.73;4.10;;;;;;;14.55;59.80;94274.34;5072271;28;20191;-76
2022/04/24 04:16:35;;;;;;;9.50;4.40;;;;;;;14.58;59.94;94285.25;5072742;28;20193;-75
2022/04/24 04:19:03;;;;;;;8.20;4.77;;;;;;;14.62;59.89;94278.78;5072718;28;20586;-75
2022/04/24 04:21:30;;;;;;;9.07;4.57;;;;;;;14.64;59.97;94277.66;5072842;28;20259;-76
2022/04/24 04:23:57;;;;;;;16.17;4.10;;;;;;;14.66;59.97;94277.47;5072694;28;20190;-75
2022/04/24 04:26:23;;;;;;;7.60;4.30;;;;;;;14.73;60.03;94281.78;5072432;28;20194;-75
2022/04/24 04:28:50;;;;;;;7.60;4.43;;;;;;;14.80;60.40;94282.66;5072744;28;20226;-76
2022/04/24 04:31:19;;;;;;;7.70;4.17;;;;;;;15.00;60.42;94297.63;5072244;28;20225;-75
2022/04/24 04:33:46;;;;;;;8.70;4.40;;;;;;;15.27;60.61;94293.66;5072373;28;20614;-75
2022/04/24 04:36:12;;;;;;;7.87;4.47;;;;;;;15.56;61.10;94292.91;5072451;28;20217;-75
2022/04/24 04:38:39;;;;;;;6.30;3.57;;;;;;;15.89;62.02;94287.38;5072501;28;20198;-75
2022/04/24 04:41:06;;;;;;;10.00;3.80;;;;;;;16.31;62.56;94308.09;5072237;28;20202;-74
2022/04/24 04:43:33;;;;;;;7.63;4.17;;;;;;;16.75;62.68;94304.63;5072156;28;20204;-74
2022/04/24 04:46:00;;;;;;;5.17;3.63;;;;;;;17.29;62.63;94323.94;5072098;28;20194;-75
2022/04/24 04:48:28;;;;;;;8.33;4.23;;;;;;;17.79;61.78;94312.56;5071987;28;20591;-75
2022/04/24 04:50:55;;;;;;;7.77;4.07;;;;;;;18.32;61.46;94313.75;5071916;28;20198;-76
2022/04/24 04:53:22;;;;;;;6.40;3.63;;;;;;;18.87;60.74;94314.47;5072414;28;20194;-76
2022/04/24 04:55:49;;;;;;;7.33;4.27;;;;;;;19.41;59.50;94322.09;5072172;28;20222;-75
2022/04/24 04:58:17;;;;;;;8.17;4.13;;;;;;;19.96;58.33;94316.63;5072001;28;20194;-75
2022/04/24 05:00:44;;;;;;;9.67;3.83;;;;;;;20.49;57.06;94312.03;5071933;28;20201;-75
2022/04/24 05:03:11;;;;;;;6.40;3.67;;;;;;;21.06;55.80;94314.66;5071767;28;20190;-75
2022/04/24 05:05:41;;;;;;;8.67;4.03;;;;;;;21.68;54.72;94319.97;5071710;28;20734;-75
2022/04/24 05:08:08;;;;;;;5.83;4.47;;;;;;;22.28;53.45;94322.78;5071580;28;20198;-74
2022/04/24 05:10:35;;;;;;;7.20;4.57;;;;;;;22.85;52.04;94320.59;5071858;28;20229;-75
2022/04/24 05:13:01;;;;;;;10.15;5.30;;;;;;;23.42;50.83;94320.16;5071737;28;20252;-74
2022/04/24 05:15:31;;;;;;;8.07;4.97;;;;;;;23.99;49.63;94317.78;5071523;28;20239;-74
2022/04/24 05:17:58;;;;;;;9.38;4.65;;;;;;;24.63;48.56;94321.16;5071592;28;20194;-75
2022/04/24 05:20:25;;;;;;;5.72;4.90;;;;;;;25.24;47.08;94332.69;5071807;28;20574;-75
2022/04/24 05:23:04;;;;;;;7.43;5.32;;;;;;;25.93;46.03;94334.25;5071411;28;20201;-74
2022/04/24 05:25:31;;;;;;;10.13;4.70;;;;;;;26.57;44.65;94323.25;5071217;28;20251;-77
2022/04/24 05:28:00;;;;;;;9.00;4.88;;;;;;;27.20;43.47;94324.38;5071149;28;20277;-74
2022/04/24 05:30:28;;;;;;;6.05;4.50;;;;;;;27.83;42.60;94328.03;5071035;28;20287;-74
2022/04/24 05:32:55;;;;;;;8.68;4.78;;;;;;;28.40;41.55;94315.97;5071404;28;20645;-75
2022/04/24 05:35:22;;;;;;;7.88;4.60;;;;;;;29.05;40.56;94325.09;5071143;28;20186;-76
2022/04/24 05:37:49;;;;;;;8.77;5.05;;;;;;;29.64;39.40;94334.34;5070777;28;20677;-75
2022/04/24 05:40:18;;;;;;;8.02;4.50;;;;;;;30.22;38.12;94325.03;5071378;28;20631;-75
2022/04/24 05:42:52;;;;;;;6.65;4.40;;;;;;;30.80;37.21;94326.38;5070951;28;20247;-76
2022/04/24 05:45:22;;;;;;;6.68;3.65;;;;;;;31.33;36.51;94324.69;5070597;28;20208;-75
2022/04/24 05:47:49;;;;;;;7.97;5.00;;;;;;;31.86;35.83;94323.97;5070744;28;20221;-76
2022/04/24 05:50:16;;;;;;;6.40;3.97;;;;;;;32.30;34.73;94317.69;5070973;28;20226;-76
2022/04/24 05:52:43;;;;;;;8.27;4.38;;;;;;;32.80;34.35;94328.72;5071101;28;20796;-75
2022/04/24 05:55:11;;;;;;;5.60;4.15;;;;;;;33.24;33.79;94325.72;5070800;28;20194;-75
2022/04/24 05:57:40;;;;;;;7.88;3.85;;;;;;;33.68;32.82;94327.97;5070524;28;20202;-75
2022/04/24 06:00:08;;;;;;;9.32;4.70;;;;;;;34.09;32.36;94316.63;5070770;28;20198;-74
2022/04/24 06:02:36;;;;;;;7.78;4.32;;;;;;;34.61;31.80;94333.16;5070713;28;20194;-75
2022/04/24 06:05:02;;;;;;;5.68;4.32;;;;;;;35.02;31.20;94339.47;5070416;28;20198;-75
2022/04/24 06:07:29;;;;;;;5.78;4.05;;;;;;;35.42;30.62;94329.78;5070705;28;20191;-76
2022/04/24 06:09:56;;;;;;;5.82;3.75;;;;;;;35.76;30.09;94323.91;5070420;28;20708;-75
2022/04/24 06:12:23;;;;;;;5.55;4.18;;;;;;;36.09;29.54;94321.72;5070647;28;20806;-76
2022/04/24 06:14:51;;;;;;;6.78;3.60;;;;;;;36.41;29.16;94327.81;5070247;28;20190;-78
2022/04/24 06:17:18;;;;;;;7.15;4.55;;;;;;;36.66;28.69;94321.00;5070560;28;20190;-75
2022/04/24 06:19:44;;;;;;;6.10;3.97;;;;;;;36.88;28.37;94320.84;5070063;28;20194;-74
2022/04/24 06:22:11;;;;;;;9.60;4.13;;;;;;;37.11;28.20;94308.19;5070806;28;20562;-75
2022/04/24 06:24:38;;;;;;;5.07;4.10;;;;;;;37.41;27.77;94321.69;5070321;28;20585;-76
2022/04/24 06:27:05;;;;;;;6.07;4.40;;;;;;;37.68;27.79;94315.19;5070572;28;20198;-76
2022/04/24 06:29:33;;;;;;;6.10;3.85;;;;;;;37.94;27.29;94312.47;5070236;28;20225;-76
2022/04/24 06:32:04;;;;;;;5.07;4.05;;;;;;;38.15;26.94;94305.31;5069956;28;20290;-75
2022/04/24 06:34:31;;;;;;;7.13;3.88;;;;;;;38.51;26.87;94314.72;5070215;28;20582;-75
2022/04/24 06:36:58;;;;;;;6.82;3.95;;;;;;;38.83;26.61;94323.22;5069390;28;20651;-76
2022/04/24 06:39:26;;;;;;;5.43;3.70;;;;;;;39.08;26.06;94324.91;5070312;28;20596;-76
2022/04/24 06:41:53;;;;;;;6.80;4.25;;;;;;;39.31;25.83;94308.53;5069761;28;20195;-75
2022/04/24 06:44:20;;;;;;;5.50;3.40;;;;;;;39.61;25.55;94315.31;5070389;28;20267;-75
2022/04/24 06:46:47;;;;;;;6.70;3.30;;;;;;;39.86;24.99;94324.22;5070030;28;20190;-76
2022/04/24 06:49:18;;;;;;;5.40;3.40;;;;;;;40.10;24.96;94317.34;5070520;28;20222;-75
2022/04/24 06:51:45;;;;;;;4.60;2.90;;;;;;;40.34;24.89;94320.03;5069570;28;20222;-74
2022/04/24 06:54:12;;;;;;;3.65;3.05;;;;;;;40.55;24.62;94314.59;5070164;28;20198;-77
2022/04/24 06:56:39;;;;;;;4.28;2.70;;;;;;;40.75;24.39;94315.53;5069661;28;20190;-76
2022/04/24 06:59:06;;;;;;;4.78;2.90;;;;;;;40.94;23.60;94311.50;5070037;28;20259;-74
2022/04/24 07:01:33;;;;;;;3.05;2.45;;;;;;;41.11;23.68;94308.56;5069768;28;20190;-75
2022/04/24 07:03:59;;;;;;;4.57;2.95;;;;;;;41.20;23.57;94300.38;5069979;28;20190;-75
2022/04/24 07:06:28;;;;;;;3.45;2.40;;;;;;;41.39;23.40;94303.22;5069983;28;20194;-74
2022/04/24 07:08:55;;;;;;;4.28;2.13;;;;;;;41.50;23.51;94306.19;5069624;28;20226;-75
2022/04/24 07:11:22;;;;;;;4.07;2.28;;;;;;;41.60;23.08;94301.09;5069824;28;20197;-75
2022/04/24 07:13:49;;;;;;;4.50;2.47;;;;;;;41.69;22.73;94298.25;5069438;28;20179;-77
2022/04/24 07:16:15;;;;;;;7.80;2.58;;;;;;;41.79;22.97;94299.63;5070318;28;20196;-76
2022/04/24 07:18:42;;;;;;;3.92;2.40;;;;;;;41.89;22.64;94295.69;5069278;28;20193;-75
2022/04/24 07:21:09;;;;;;;4.53;2.97;;;;;;;41.97;22.58;94300.09;5070011;28;20624;-74
2022/04/24 07:23:37;;;;;;;4.07;2.38;;;;;;;42.03;22.59;94286.06;5069200;28;20288;-74
2022/04/24 07:26:04;;;;;;;6.30;2.55;;;;;;;42.08;22.08;94282.31;5069625;28;20263;-75
2022/04/24 07:28:32;;;;;;;2.78;2.40;;;;;;;42.08;22.40;94274.28;5069420;28;20650;-75
2022/04/24 07:30:59;;;;;;;7.10;2.50;;;;;;;42.14;22.36;94282.84;5069761;28;20302;-75
2022/04/24 07:33:26;;;;;;;3.00;2.20;;;;;;;42.16;22.22;94288.66;5069672;28;20268;-74
2022/04/24 07:35:53;;;;;;;6.25;2.42;;;;;;;42.16;22.04;94276.00;5069626;28;20186;-74
2022/04/24 07:38:20;;;;;;;5.40;2.20;;;;;;;42.16;21.74;94270.63;5069582;28;20251;-75
2022/04/24 07:40:48;;;;;;;7.35;2.53;;;;;;;42.14;22.02;94280.16;5069278;28;20193;-74
2022/04/24 07:43:15;;;;;;;4.53;2.42;;;;;;;42.09;21.61;94273.13;5070024;28;20201;-75
2022/04/24 07:45:43;;;;;;;3.08;2.40;;;;;;;42.06;22.00;94279.22;5069466;28;20200;-75
2022/04/24 07:48:11;;;;;;;2.95;2.17;;;;;;;42.00;21.52;94283.28;5070376;28;20812;-74
2022/04/24 07:50:39;;;;;;;4.47;2.65;;;;;;;41.89;21.74;94272.28;5072802;28;20218;-75
2022/04/24 07:53:07;;;;;;;3.05;2.15;;;;;;;41.80;21.64;94282.44;5073180;28;20197;-74
2022/04/24 07:55:34;;;;;;;4.25;2.80;;;;;;;41.72;21.84;94284.13;5072946;28;20212;-76
2022/04/24 07:58:02;;;;;;;5.10;2.88;;;;;;;41.64;21.87;94273.56;5073176;28;20190;-75
2022/04/24 08:00:32;;;;;;;3.35;2.20;;;;;;;41.54;22.06;94266.75;5073152;28;20580;-75
2022/04/24 08:03:01;;;;;;;4.65;2.60;;;;;;;41.45;22.27;94269.59;5073030;28;20674;-74
2022/04/24 08:05:29;;;;;;;3.45;2.47;;;;;;;41.35;22.17;94270.09;5072749;28;20626;-74
2022/04/24 08:07:58;;;;;;;3.72;2.40;;;;;;;41.24;21.77;94259.09;5073117;28;20198;-74
2022/04/24 08:10:26;;;;;;;2.72;2.20;;;;;;;41.14;21.98;94256.09;5072365;28;20242;-75
2022/04/24 08:12:53;;;;;;;5.53;2.70;;;;;;;40.98;21.75;94248.81;5073038;28;20197;-74
2022/04/24 08:15:21;;;;;;;4.38;2.80;;;;;;;40.90;22.13;94256.97;5072628;28;20194;-75
2022/04/24 08:17:48;;;;;;;5.18;2.80;;;;;;;40.73;22.00;94244.59;5072727;28;20196;-75
2022/04/24 08:20:16;;;;;;;4.82;2.80;;;;;;;40.60;22.25;94241.19;5072484;28;20589;-74
2022/04/24 08:22:45;;;;;;;3.90;2.60;;;;;;;40.48;21.96;94241.16;5072434;28;20201;-74
2022/04/24 08:25:13;;;;;;;6.25;2.92;;;;;;;40.32;22.36;94230.34;5072522;28;20619;-75
2022/04/24 08:27:41;;;;;;;4.60;2.60;;;;;;;40.17;21.97;94234.53;5072654;28;20198;-75
2022/04/24 08:30:10;;;;;;;4.00;2.50;;;;;;;40.01;22.41;94233.59;5072236;28;20743;-74
2022/04/24 08:32:39;;;;;;;4.65;2.70;;;;;;;39.84;22.03;94229.25;5072754;28;20194;-74
2022/04/24 08:35:08;;;;;;;4.53;2.47;;;;;;;39.63;22.58;94224.72;5072426;28;20186;-74
2022/04/24 08:37:35;;;;;;;5.07;2.55;;;;;;;39.51;22.41;94221.25;5072437;28;20210;-75
2022/04/24 08:40:03;;;;;;;3.47;2.40;;;;;;;39.33;22.36;94218.00;5072580;28;20202;-74
2022/04/24 08:42:30;;;;;;;2.60;2.40;;;;;;;39.18;22.49;94218.59;5072430;28;20195;-74
2022/04/24 08:44:57;;;;;;;2.08;1.88;;;;;;;39.00;23.02;94223.34;5072402;28;20209;-73
2022/04/24 08:47:25;;;;;;;3.78;2.47;;;;;;;38.84;22.98;94228.50;5072300;28;20648;-74
2022/04/24 08:49:56;;;;;;;4.30;2.33;;;;;;;38.68;23.10;94227.50;5071668;28;20621;-74
2022/04/24 08:52:24;;;;;;;2.67;1.92;;;;;;;38.52;22.72;94216.66;5071901;28;20201;-73
2022/04/24 08:54:52;;;;;;;6.00;2.42;;;;;;;38.33;22.81;94220.53;5072316;28;20206;-74
2022/04/24 08:57:20;;;;;;;3.90;2.08;;;;;;;38.01;23.08;94192.59;5072141;28;20194;-74
2022/04/24 08:59:47;;;;;;;4.05;1.88;;;;;;;37.94;23.39;94202.97;5071594;28;20198;-73
2022/04/24 09:02:15;;;;;;;5.85;2.20;;;;;;;37.82;23.38;94216.19;5071940;28;20190;-73
2022/04/24 09:04:42;;;;;;;7.68;2.70;;;;;;;37.65;23.71;94214.38;5071509;28;20264;-74
2022/04/24 09:07:17;;;;;;;5.97;2.33;;;;;;;37.46;23.78;94206.78;5071775;28;20208;-74
2022/04/24 09:09:45;;;;;;;3.67;2.30;;;;;;;37.31;23.64;94208.06;5071415;28;20255;-74
2022/04/24 09:12:14;;;;;;;7.07;2.45;;;;;;;37.14;24.07;94202.75;5071561;28;20787;-73
2022/04/24 09:14:41;;;;;;;3.75;2.22;;;;;;;36.92;23.98;94187.75;5071599;28;20662;-73
2022/04/24 09:17:16;;;;;;;4.88;2.53;;;;;;;36.82;23.94;94193.38;5071327;28;20684;-74
2022/04/24 09:19:43;;;;;;;6.90;2.85;;;;;;;36.61;24.05;94190.56;5071489;28;20592;-77
2022/04/24 09:22:11;;;;;;;3.58;2.38;;;;;;;36.41;24.08;94186.63;5071382;28;20197;-73
2022/04/24 09:24:43;;;;;;;5.78;2.55;;;;;;;36.24;24.32;94183.94;5071471;28;20222;-73
2022/04/24 09:27:11;;;;;;;4.25;2.33;;;;;;;36.04;24.33;94186.09;5071200;28;20312;-74
2022/04/24 09:29:40;;;;;;;2.70;2.10;;;;;;;35.85;24.31;94174.91;5071127;28;20194;-75
2022/04/24 09:32:11;;;;;;;3.05;2.08;;;;;;;35.63;24.47;94170.47;5071106;28;20682;-74
2022/04/24 09:34:40;;;;;;;5.90;2.35;;;;;;;35.44;24.81;94163.47;5071143;28;20727;-74
2022/04/24 09:37:09;;;;;;;4.03;2.00;;;;;;;35.28;24.79;94161.53;5071198;28;20185;-75
2022/04/24 09:39:39;;;;;;;2.08;1.90;;;;;;;35.11;24.95;94163.03;5071254;28;20194;-76
2022/04/24 09:42:08;;;;;;;2.85;1.83;;;;;;;34.93;25.12;94158.66;5070862;28;20661;-73
2022/04/24 09:44:41;;;;;;;3.25;2.00;;;;;;;34.78;25.07;94161.69;5071039;28;20199;-74
2022/04/24 09:47:08;;;;;;;4.00;2.05;;;;;;;34.61;25.27;94160.50;5071064;28;20190;-75
2022/04/24 09:49:37;;;;;;;4.97;2.00;;;;;;;34.38;25.36;94141.09;5071217;28;20190;-75
2022/04/24 09:52:11;;;;;;;2.03;1.75;;;;;;;34.29;25.62;94140.22;5071034;28;20198;-75
2022/04/24 09:54:41;;;;;;;3.67;2.05;;;;;;;34.14;25.47;94138.69;5071019;28;20229;-74
2022/04/24 09:57:10;;;;;;;3.78;1.63;;;;;;;34.01;25.67;94136.84;5070853;28;20676;-75
2022/04/24 09:59:38;;;;;;;4.28;1.80;;;;;;;33.85;25.88;94130.25;5070784;28;20225;-74
2022/04/24 10:02:06;;;;;;;2.83;2.05;;;;;;;33.71;25.76;94132.94;5070849;28;20277;-74
2022/04/24 10:04:36;;;;;;;4.32;2.35;;;;;;;33.55;26.01;94126.38;5070567;28;20569;-74
2022/04/24 10:07:06;;;;;;;4.45;2.30;;;;;;;33.38;26.27;94122.44;5070492;28;20758;-74
2022/04/24 10:09:34;;;;;;;4.50;2.30;;;;;;;33.22;26.55;94115.84;5070464;28;20309;-75
2022/04/24 10:12:08;;;;;;;4.55;2.13;;;;;;;33.10;26.38;94111.03;5069810;28;20653;-73
2022/04/24 10:14:40;;;;;;;2.13;1.92;;;;;;;32.99;26.54;94107.00;5070398;28;20205;-74
2022/04/24 10:17:38;;;;;;;4.65;2.28;;;;;;;32.89;26.59;94102.63;5070614;28;20194;-74
2022/04/24 10:20:23;;;;;;;2.45;2.00;;;;;;;32.74;26.72;94096.81;5070525;28;20585;-74
2022/04/24 10:22:54;;;;;;;5.85;2.10;;;;;;;32.42;26.64;94069.25;5070358;28;20190;-74
2022/04/24 10:25:30;;;;;;;3.50;2.13;;;;;;;32.43;26.76;94092.81;5070585;28;20669;-76
2022/04/24 10:28:11;;;;;;;2.60;1.80;;;;;;;32.35;27.22;94092.66;5070225;28;20205;-72
2022/04/24 10:30:38;;;;;;;5.53;2.00;;;;;;;32.23;27.11;94093.09;5070124;28;20224;-76
2022/04/24 10:33:18;;;;;;;5.22;2.47;;;;;;;32.11;27.49;94084.81;5070355;28;20198;-74
2022/04/24 10:35:50;;;;;;;5.68;2.30;;;;;;;32.01;27.44;94082.31;5070025;28;20202;-73
2022/04/24 10:38:18;;;;;;;6.28;2.47;;;;;;;31.91;27.74;94088.50;5070419;28;20201;-75
2022/04/24 10:40:57;;;;;;;3.88;1.80;;;;;;;31.79;28.12;94077.56;5070270;28;20190;-74
2022/04/24 10:43:25;;;;;;;4.50;2.63;;;;;;;31.72;27.57;94085.84;5070367;28;20612;-74
2022/04/24 10:45:53;;;;;;;5.00;2.05;;;;;;;31.61;28.08;94081.78;5070214;28;20190;-76
2022/04/24 10:48:21;;;;;;;4.05;2.33;;;;;;;31.53;27.74;94075.25;5070387;28;20187;-73
2022/04/24 10:50:48;;;;;;;8.23;2.42;;;;;;;31.40;28.02;94073.31;5069635;28;20229;-74
2022/04/24 10:53:15;;;;;;;8.85;2.42;;;;;;;31.35;28.45;94071.50;5069920;28;20198;-74
2022/04/24 10:55:43;;;;;;;9.15;1.95;;;;;;;31.27;28.14;94071.31;5069921;28;20190;-75
2022/04/24 10:58:11;;;;;;;7.28;2.50;;;;;;;31.16;28.18;94065.34;5070088;28;20205;-74
2022/04/24 11:00:39;;;;;;;4.40;1.92;;;;;;;31.08;28.22;94069.41;5070036;28;20202;-74
2022/04/24 11:03:08;;;;;;;4.75;2.35;;;;;;;31.00;28.28;94059.44;5069798;28;20194;-73
2022/04/24 11:05:40;;;;;;;3.20;2.00;;;;;;;30.93;28.65;94059.78;5070294;28;20232;-74
2022/04/24 11:08:09;;;;;;;2.03;1.80;;;;;;;30.85;28.61;94060.41;5069577;28;20198;-75
2022/04/24 11:10:42;;;;;;;4.63;2.10;;;;;;;30.78;28.67;94056.50;5070029;28;20222;-74
2022/04/24 11:13:11;;;;;;;4.47;2.20;;;;;;;30.62;28.85;94034.75;5070179;28;20194;-74
2022/04/24 11:15:44;;;;;;;4.18;2.20;;;;;;;30.59;29.15;94051.91;5070050;28;20208;-73
2022/04/24 11:18:21;;;;;;;3.13;1.80;;;;;;;30.50;28.79;94050.94;5069803;28;20190;-75
2022/04/24 11:20:57;;;;;;;5.38;2.10;;;;;;;30.39;29.19;94034.41;5069572;28;20186;-75
2022/04/24 11:23:27;;;;;;;2.65;1.80;;;;;;;30.32;29.37;94033.19;5072764;28;20193;-74
2022/04/24 11:25:55;;;;;;;3.10;2.20;;;;;;;30.21;29.26;94027.19;5073598;28;20222;-75
2022/04/24 11:28:22;;;;;;;5.82;2.17;;;;;;;30.14;29.28;94029.31;5073710;28;20241;-75
2022/04/24 11:30:50;;;;;;;6.53;2.00;;;;;;;30.07;29.59;94028.84;5073668;28;20221;-74
2022/04/24 11:33:17;;;;;;;4.90;2.00;;;;;;;30.00;29.56;94022.03;5073899;28;20260;-75
2022/04/24 11:35:44;;;;;;;2.72;1.77;;;;;;;29.93;29.60;94021.56;5073474;28;20190;-75
2022/04/24 11:38:13;;;;;;;7.43;2.17;;;;;;;29.87;29.57;94025.28;5073410;28;20213;-75